createdAt,value
2022-09-28T00:01:23.639Z,6.57
2022-09-28T00:03:53.583Z,5.78
2022-09-28T00:06:24.580Z,6.25
2022-09-28T00:08:51.942Z,6.40
2022-09-28T00:11:21.684Z,6.50
2022-09-28T00:13:51.802Z,7.95
2022-09-28T00:16:22.869Z,8.82
2022-09-28T00:18:52.512Z,8.73
2022-09-28T00:21:25.043Z,11.50
2022-09-28T00:24:22.936Z,14.30
2022-09-28T00:26:55.384Z,11.85
2022-09-28T00:29:23.627Z,11.75
2022-09-28T00:32:00.085Z,9.50
2022-09-28T00:34:27.566Z,10.85
2022-09-28T00:36:54.806Z,6.65
2022-09-28T00:39:21.817Z,6.85
2022-09-28T00:41:49.164Z,7.05
2022-09-28T00:44:25.605Z,5.95
2022-09-28T00:47:08.313Z,8.13
2022-09-28T00:49:42.916Z,6.10
2022-09-28T00:52:15.872Z,5.93
2022-09-28T00:54:46.046Z,6.88
2022-09-28T00:57:14.017Z,6.65
2022-09-28T00:59:42.248Z,6.47
2022-09-28T01:02:10.704Z,6.35
2022-09-28T01:04:38.945Z,5.63
2022-09-28T01:07:09.027Z,5.82
2022-09-28T01:09:39.262Z,4.70
2022-09-28T01:12:07.237Z,4.55
2022-09-28T01:14:34.524Z,5.15
2022-09-28T01:17:13.651Z,5.63
2022-09-28T01:20:07.934Z,5.70
2022-09-28T01:23:00.314Z,6.28
2022-09-28T01:25:39.414Z,6.57
2022-09-28T01:28:18.108Z,7.18
2022-09-28T01:31:00.063Z,4.90
2022-09-28T01:33:37.304Z,5.30
2022-09-28T01:36:25.329Z,5.10
2022-09-28T01:39:06.281Z,4.03
2022-09-28T01:41:36.952Z,4.22
2022-09-28T01:44:08.905Z,4.95
2022-09-28T01:46:44.777Z,7.97
2022-09-28T01:49:24.402Z,8.25
2022-09-28T01:51:57.974Z,10.05
2022-09-28T01:54:36.554Z,12.65
2022-09-28T01:57:18.576Z,12.65
2022-09-28T01:59:56.482Z,10.45
2022-09-28T02:02:32.611Z,10.65
2022-09-28T02:05:17.195Z,9.50
2022-09-28T02:08:04.329Z,8.85
2022-09-28T02:10:54.598Z,10.35
2022-09-28T02:13:31.082Z,9.73
2022-09-28T02:16:23.185Z,9.13
2022-09-28T02:18:51.471Z,9.60
2022-09-28T02:21:24.126Z,8.45
2022-09-28T02:24:10.166Z,8.45
2022-09-28T02:26:42.179Z,9.07
2022-09-28T02:29:09.374Z,8.75
2022-09-28T02:31:36.396Z,8.40
2022-09-28T02:34:03.631Z,8.65
2022-09-28T02:36:31.470Z,6.53
2022-09-28T02:38:58.578Z,5.70
2022-09-28T02:41:46.902Z,5.20
2022-09-28T02:44:30.758Z,5.35
2022-09-28T02:47:10.905Z,6.10
2022-09-28T02:50:07.239Z,5.90
2022-09-28T02:52:40.175Z,6.55
2022-09-28T02:55:12.867Z,7.93
2022-09-28T02:57:46.032Z,7.47
2022-09-28T03:00:19.456Z,6.82
2022-09-28T03:03:18.127Z,7.90
2022-09-28T03:06:21.527Z,8.27
2022-09-28T03:08:58.119Z,8.25
2022-09-28T03:11:52.002Z,8.45
2022-09-28T03:14:19.544Z,9.02
2022-09-28T03:16:51.861Z,9.15
2022-09-28T03:19:25.039Z,8.80
2022-09-28T03:21:52.295Z,7.50
2022-09-28T03:24:19.251Z,7.25
2022-09-28T03:26:46.657Z,6.95
2022-09-28T03:29:14.533Z,7.15
2022-09-28T03:31:44.389Z,6.95
2022-09-28T03:34:12.025Z,6.88
2022-09-28T03:36:38.992Z,6.78
2022-09-28T03:39:05.888Z,7.32
2022-09-28T03:41:32.835Z,7.40
2022-09-28T03:43:59.871Z,6.60
2022-09-28T03:46:28.577Z,6.95
2022-09-28T03:49:01.645Z,7.03
2022-09-28T03:51:29.119Z,6.75
2022-09-28T03:53:56.042Z,7.35
2022-09-28T03:56:23.127Z,6.75
2022-09-28T03:58:50.339Z,8.13
2022-09-28T04:01:18.022Z,7.22
2022-09-28T04:03:47.225Z,6.72
2022-09-28T04:06:14.971Z,7.93
2022-09-28T04:08:43.139Z,7.03
2022-09-28T04:11:09.995Z,7.40
2022-09-28T04:13:37.381Z,7.38
2022-09-28T04:16:06.265Z,8.43
2022-09-28T04:18:35.276Z,7.65
2022-09-28T04:21:11.489Z,7.05
2022-09-28T04:23:42.652Z,7.68
2022-09-28T04:26:25.449Z,6.97
2022-09-28T04:29:11.367Z,6.53
2022-09-28T04:31:53.613Z,7.25
2022-09-28T04:34:23.677Z,7.72
2022-09-28T04:36:51.290Z,7.63
2022-09-28T04:39:21.859Z,7.70
2022-09-28T04:41:52.123Z,11.23
2022-09-28T04:44:19.177Z,15.32
2022-09-28T04:47:04.225Z,14.10
2022-09-28T04:49:32.028Z,10.20
2022-09-28T04:52:07.826Z,9.18
2022-09-28T04:54:35.490Z,9.98
2022-09-28T04:57:03.843Z,9.05
2022-09-28T04:59:30.879Z,10.57
2022-09-28T05:01:58.051Z,12.35
2022-09-28T05:04:43.642Z,10.43
2022-09-28T05:07:31.484Z,10.60
2022-09-28T05:10:01.808Z,10.63
2022-09-28T05:12:31.225Z,11.07
2022-09-28T05:15:00.668Z,12.45
2022-09-28T05:17:28.680Z,13.43
2022-09-28T05:20:24.485Z,12.20
2022-09-28T05:22:52.319Z,13.65
2022-09-28T05:25:19.411Z,12.27
2022-09-28T05:27:57.534Z,11.55
2022-09-28T05:30:39.586Z,12.02
2022-09-28T05:33:26.447Z,10.77
2022-09-28T05:36:13.252Z,10.82
2022-09-28T05:38:42.107Z,13.20
2022-09-28T05:41:09.291Z,13.30
2022-09-28T05:43:36.730Z,30.25
2022-09-28T05:46:06.143Z,17.27
2022-09-28T05:48:35.940Z,16.48
2022-09-28T05:51:02.973Z,14.77
2022-09-28T05:53:30.467Z,13.07
2022-09-28T05:55:59.683Z,10.98
2022-09-28T05:58:28.150Z,10.13
2022-09-28T06:00:58.464Z,11.30
2022-09-28T06:03:27.208Z,11.48
2022-09-28T06:05:54.604Z,10.02
2022-09-28T06:08:21.826Z,9.27
2022-09-28T06:11:01.056Z,9.95
2022-09-28T06:13:28.966Z,9.57
2022-09-28T06:15:56.128Z,10.07
2022-09-28T06:18:23.222Z,9.45
2022-09-28T06:21:14.825Z,9.13
2022-09-28T06:23:48.998Z,9.20
2022-09-28T06:26:17.703Z,8.93
2022-09-28T06:28:45.576Z,9.38
2022-09-28T06:31:13.843Z,9.63
2022-09-28T06:33:45.489Z,9.48
2022-09-28T06:36:13.823Z,9.52
2022-09-28T06:38:40.785Z,8.52
2022-09-28T06:41:08.059Z,10.57
2022-09-28T06:43:35.331Z,11.10
2022-09-28T06:46:21.443Z,9.60
2022-09-28T06:48:49.078Z,10.38
2022-09-28T06:51:25.328Z,9.57
2022-09-28T06:54:07.327Z,8.80
2022-09-28T06:56:40.284Z,8.40
2022-09-28T06:59:07.244Z,8.88
2022-09-28T07:01:35.718Z,8.75
2022-09-28T07:04:18.502Z,8.73
2022-09-28T07:07:18.463Z,8.68
2022-09-28T07:10:04.473Z,8.38
2022-09-28T07:12:44.316Z,7.90
2022-09-28T07:15:24.826Z,8.43
2022-09-28T07:18:02.784Z,8.30
2022-09-28T07:20:45.382Z,8.52
2022-09-28T07:23:19.810Z,8.77
2022-09-28T07:26:08.149Z,8.15
2022-09-28T07:28:56.043Z,8.40
2022-09-28T07:31:33.797Z,8.63
2022-09-28T07:34:44.147Z,9.52
2022-09-28T07:37:19.018Z,8.85
2022-09-28T07:40:06.207Z,8.02
2022-09-28T07:42:38.425Z,7.30
2022-09-28T07:45:07.462Z,7.30
2022-09-28T07:47:35.385Z,7.70
2022-09-28T07:50:32.430Z,5.32
2022-09-28T07:53:06.283Z,5.88
2022-09-28T07:56:07.469Z,4.80
2022-09-28T07:58:43.184Z,4.07
2022-09-28T08:01:31.411Z,4.30
2022-09-28T08:04:00.169Z,4.38
2022-09-28T08:06:27.072Z,4.22
2022-09-28T08:08:56.818Z,3.75
2022-09-28T08:11:32.783Z,2.97
2022-09-28T08:14:23.664Z,3.65
2022-09-28T08:20:03.155Z,3.00
2022-09-28T08:22:32.487Z,3.00
2022-09-28T08:25:00.658Z,3.10
2022-09-28T08:27:29.882Z,2.83
2022-09-28T08:29:56.940Z,3.40
2022-09-28T08:32:59.759Z,2.90
2022-09-28T08:35:42.380Z,2.42
2022-09-28T08:38:14.992Z,2.80
2022-09-28T08:41:21.507Z,2.60
2022-09-28T08:44:16.238Z,2.55
2022-09-28T08:47:30.060Z,2.60
2022-09-28T08:50:29.350Z,2.83
2022-09-28T08:53:38.974Z,2.50
2022-09-28T08:56:32.741Z,3.08
2022-09-28T08:59:04.594Z,2.85
2022-09-28T09:01:38.789Z,3.53
2022-09-28T09:04:10.492Z,2.40
2022-09-28T09:07:25.115Z,4.05
2022-09-28T09:10:36.715Z,2.88
2022-09-28T09:13:23.793Z,2.80
2022-09-28T09:16:24.365Z,3.63
2022-09-28T09:19:36.563Z,3.42
2022-09-28T09:22:42.351Z,3.20
2022-09-28T09:25:35.373Z,3.10
2022-09-28T09:28:35.384Z,3.42
2022-09-28T09:31:20.727Z,4.05
2022-09-28T09:34:25.531Z,2.60
2022-09-28T09:37:28.600Z,2.80
2022-09-28T09:44:18.535Z,2.33
2022-09-28T09:47:13.600Z,2.28
2022-09-28T09:50:30.460Z,1.98
2022-09-28T09:53:06.921Z,2.05
2022-09-28T09:55:42.104Z,2.13
2022-09-28T10:13:13.626Z,2.17
2022-09-28T10:15:42.554Z,3.00
2022-09-28T10:18:21.091Z,2.33
2022-09-28T10:21:06.935Z,2.72
2022-09-28T10:23:59.734Z,3.08
2022-09-28T10:26:36.226Z,2.10
2022-09-28T10:29:13.239Z,3.05
2022-09-28T10:31:45.473Z,12.70
2022-09-28T10:34:28.879Z,6.82
2022-09-28T10:37:01.407Z,8.43
2022-09-28T10:39:47.190Z,2.08
2022-09-28T10:42:21.261Z,20.27
2022-09-28T10:45:23.449Z,2.95
2022-09-28T10:47:52.220Z,2.30
2022-09-28T10:50:23.787Z,5.18
2022-09-28T10:53:32.097Z,4.20
2022-09-28T10:56:18.503Z,2.28
2022-09-28T10:58:47.036Z,2.97
2022-09-28T11:01:26.866Z,2.28
2022-09-28T11:04:02.558Z,5.10
2022-09-28T11:06:32.959Z,3.70
2022-09-28T11:09:03.125Z,5.10
2022-09-28T11:11:32.047Z,5.32
2022-09-28T11:14:04.287Z,2.67
2022-09-28T11:16:36.756Z,1.70
2022-09-28T11:19:20.332Z,2.15
2022-09-28T11:21:48.593Z,1.60
2022-09-28T11:24:19.101Z,3.30
2022-09-28T11:26:50.310Z,2.42
2022-09-28T11:29:45.511Z,2.03
2022-09-28T11:32:24.620Z,1.70
2022-09-28T11:35:19.878Z,2.15
2022-09-28T11:37:59.642Z,2.08
2022-09-28T11:41:15.684Z,2.10
2022-09-28T11:44:05.728Z,2.95
2022-09-28T11:46:44.581Z,2.38
2022-09-28T11:49:22.776Z,1.60
2022-09-28T11:51:52.874Z,3.17
2022-09-28T11:54:19.892Z,2.33
2022-09-28T11:56:49.880Z,2.00
2022-09-28T11:59:40.004Z,1.85
2022-09-28T12:02:17.080Z,1.83
2022-09-28T12:05:07.979Z,1.90
2022-09-28T12:07:44.731Z,2.95
2022-09-28T12:11:00.907Z,2.50
2022-09-28T12:14:04.882Z,3.17
2022-09-28T12:19:44.214Z,2.83
2022-09-28T12:22:25.604Z,2.08
2022-09-28T12:24:56.787Z,2.10
2022-09-28T12:27:29.783Z,2.08
2022-09-28T12:30:04.628Z,2.30
2022-09-28T12:32:47.001Z,2.20
2022-09-28T12:35:20.186Z,2.28
2022-09-28T12:38:24.700Z,1.90
2022-09-28T12:40:55.806Z,2.22
2022-09-28T12:43:33.558Z,2.10
2022-09-28T12:46:13.854Z,2.88
2022-09-28T12:49:51.466Z,1.70
2022-09-28T12:51:55.024Z,1.88
2022-09-28T12:54:42.172Z,1.40
2022-09-28T12:57:24.493Z,3.53
2022-09-28T13:00:12.516Z,1.58
2022-09-28T13:03:07.825Z,1.30
2022-09-28T13:06:07.093Z,1.52
2022-09-28T13:09:06.747Z,1.10
2022-09-28T13:11:43.907Z,2.25
2022-09-28T13:14:49.757Z,1.80
2022-09-28T13:18:01.031Z,2.03
2022-09-28T13:20:35.900Z,1.60
2022-09-28T13:23:16.577Z,1.60
2022-09-28T13:25:51.042Z,1.58
2022-09-28T13:28:26.174Z,1.55
2022-09-28T13:33:45.080Z,1.30
2022-09-28T13:36:33.037Z,1.50
2022-09-28T13:39:00.930Z,2.75
2022-09-28T13:41:40.508Z,2.05
2022-09-28T13:44:13.946Z,1.27
2022-09-28T13:47:10.184Z,1.67
2022-09-28T13:49:56.716Z,1.55
2022-09-28T13:52:44.567Z,1.73
2022-09-28T13:55:22.303Z,1.50
2022-09-28T13:57:54.281Z,1.40
2022-09-28T14:00:44.472Z,1.52
2022-09-28T14:03:26.138Z,1.35
2022-09-28T14:06:04.613Z,1.80
2022-09-28T14:08:38.679Z,1.83
2022-09-28T14:11:36.887Z,2.00
2022-09-28T14:14:14.773Z,1.40
2022-09-28T14:16:43.414Z,1.15
2022-09-28T14:19:32.444Z,1.35
2022-09-28T14:22:11.453Z,1.75
2022-09-28T14:24:48.243Z,1.30
2022-09-28T14:29:54.302Z,1.40
2022-09-28T14:32:24.209Z,1.10
2022-09-28T14:35:01.653Z,1.42
2022-09-28T14:37:56.406Z,1.35
2022-09-28T14:40:49.752Z,3.10
2022-09-28T14:43:35.832Z,1.77
2022-09-28T14:46:12.892Z,1.20
2022-09-28T14:48:49.195Z,1.20
2022-09-28T14:54:14.124Z,1.23
2022-09-28T14:57:09.739Z,1.00
2022-09-28T14:59:43.588Z,0.70
2022-09-28T15:02:11.121Z,1.60
2022-09-28T15:04:47.194Z,1.27
2022-09-28T15:07:33.379Z,1.10
2022-09-28T15:10:02.751Z,1.00
2022-09-28T15:12:32.797Z,1.27
2022-09-28T15:15:08.640Z,1.20
2022-09-28T15:17:40.876Z,0.80
2022-09-28T15:20:41.817Z,1.00
2022-09-28T15:23:37.315Z,1.15
2022-09-28T15:26:09.745Z,1.45
2022-09-28T15:28:39.455Z,1.10
2022-09-28T15:31:06.629Z,1.20
2022-09-28T15:33:53.700Z,1.45
2022-09-28T15:36:25.655Z,1.13
2022-09-28T15:38:59.543Z,1.40
2022-09-28T15:41:27.459Z,1.17
2022-09-28T15:44:12.336Z,1.80
2022-09-28T15:46:43.228Z,1.63
2022-09-28T15:49:45.496Z,1.33
2022-09-28T15:52:42.960Z,1.85
2022-09-28T15:55:21.112Z,1.83
2022-09-28T15:57:49.711Z,1.50
2022-09-28T16:00:28.993Z,1.60
2022-09-28T16:03:22.309Z,1.60
2022-09-28T16:05:58.479Z,1.30
2022-09-28T16:08:33.099Z,1.50
2022-09-28T16:11:18.406Z,1.75
2022-09-28T16:13:48.970Z,1.75
2022-09-28T16:16:17.230Z,1.60
2022-09-28T16:18:49.029Z,1.48
2022-09-28T16:21:39.266Z,1.75
2022-09-28T16:24:08.599Z,2.63
2022-09-28T16:26:39.039Z,1.67
2022-09-28T16:29:25.908Z,2.22
2022-09-28T16:31:53.314Z,2.97
2022-09-28T16:34:24.609Z,2.38
2022-09-28T16:36:51.728Z,2.20
2022-09-28T16:39:19.324Z,2.40
2022-09-28T16:41:53.974Z,2.13
2022-09-28T16:44:28.511Z,2.50
2022-09-28T16:46:58.584Z,2.65
2022-09-28T16:49:26.926Z,3.88
2022-09-28T16:51:54.334Z,3.88
2022-09-28T16:54:42.741Z,4.55
2022-09-28T16:57:15.072Z,5.90
2022-09-28T16:59:42.060Z,7.90
2022-09-28T17:05:14.012Z,8.15
2022-09-28T17:07:41.000Z,11.57
2022-09-28T17:10:50.114Z,9.30
2022-09-28T17:13:33.379Z,14.13
2022-09-28T17:18:40.140Z,10.45
2022-09-28T17:21:12.437Z,9.52
2022-09-28T17:23:39.669Z,11.05
2022-09-28T17:26:06.855Z,8.40
2022-09-28T17:28:36.421Z,9.93
2022-09-28T17:31:04.991Z,10.48
2022-09-28T17:33:32.394Z,9.98
2022-09-28T17:36:01.555Z,11.48
2022-09-28T17:38:28.562Z,10.05
2022-09-28T17:40:55.737Z,8.63
2022-09-28T17:43:22.769Z,5.65
2022-09-28T17:45:50.833Z,4.78
2022-09-28T17:48:23.474Z,5.00
2022-09-28T17:50:51.278Z,4.97
2022-09-28T17:53:18.399Z,2.97
2022-09-28T17:55:47.891Z,2.33
2022-09-28T17:58:16.778Z,3.15
2022-09-28T18:00:46.123Z,3.03
2022-09-28T18:03:16.308Z,4.30
2022-09-28T18:05:54.074Z,4.57
2022-09-28T18:08:23.053Z,12.73
2022-09-28T18:10:50.740Z,5.57
2022-09-28T18:13:18.182Z,4.50
2022-09-28T18:15:45.170Z,4.40
2022-09-28T18:18:13.062Z,3.42
2022-09-28T18:20:41.683Z,6.82
2022-09-28T18:23:08.857Z,5.70
2022-09-28T18:25:39.695Z,5.93
2022-09-28T18:28:07.115Z,6.20
2022-09-28T18:30:34.370Z,4.50
2022-09-28T18:33:01.877Z,4.80
2022-09-28T18:35:29.255Z,4.30
2022-09-28T18:37:56.790Z,5.10
2022-09-28T18:40:24.236Z,4.90
2022-09-28T18:42:52.238Z,4.90
2022-09-28T18:45:19.281Z,4.28
2022-09-28T18:47:46.944Z,3.95
2022-09-28T18:50:15.733Z,4.25
2022-09-28T18:52:45.002Z,3.88
2022-09-28T18:55:12.698Z,5.30
2022-09-28T18:57:41.705Z,3.85
2022-09-28T19:00:11.726Z,5.45
2022-09-28T19:02:39.284Z,5.32
2022-09-28T19:05:07.271Z,6.53
2022-09-28T19:07:34.839Z,8.10
2022-09-28T19:10:02.025Z,5.47
2022-09-28T19:12:29.557Z,3.90
2022-09-28T19:14:56.585Z,4.30
2022-09-28T19:17:24.129Z,6.20
2022-09-28T19:19:52.113Z,14.57
2022-09-28T19:22:19.302Z,18.45
2022-09-28T19:24:46.224Z,14.90
2022-09-28T19:27:13.971Z,7.72
2022-09-28T19:29:40.983Z,5.97
2022-09-28T19:32:08.255Z,4.78
2022-09-28T19:34:35.481Z,6.03
2022-09-28T19:37:04.040Z,6.15
2022-09-28T19:39:31.164Z,5.50
2022-09-28T19:42:00.505Z,4.57
2022-09-28T19:44:28.894Z,4.72
2022-09-28T19:47:08.234Z,5.68
2022-09-28T19:49:37.519Z,5.43
2022-09-28T19:52:13.259Z,4.97
2022-09-28T19:57:27.884Z,4.63
2022-09-28T20:00:00.910Z,5.03
2022-09-28T20:02:33.894Z,5.85
2022-09-28T20:05:03.126Z,4.75
2022-09-28T20:07:33.075Z,4.85
2022-09-28T20:10:01.017Z,5.18
2022-09-28T20:12:27.920Z,5.30
2022-09-28T20:14:55.182Z,5.43
2022-09-28T20:17:22.867Z,5.28
2022-09-28T20:19:51.927Z,5.53
2022-09-28T20:22:19.443Z,5.63
2022-09-28T20:24:47.590Z,6.03
2022-09-28T20:27:14.598Z,6.50
2022-09-28T20:29:43.183Z,5.78
2022-09-28T20:32:16.441Z,5.15
2022-09-28T20:34:43.893Z,5.65
2022-09-28T20:37:13.766Z,5.57
2022-09-28T20:39:44.804Z,4.82
2022-09-28T20:42:12.654Z,8.60
2022-09-28T20:44:39.524Z,6.40
2022-09-28T20:47:08.317Z,9.30
2022-09-28T20:49:37.052Z,8.65
2022-09-28T20:52:04.231Z,7.45
2022-09-28T20:54:31.186Z,5.80
2022-09-28T20:56:58.518Z,7.53
2022-09-28T20:59:26.599Z,8.70
2022-09-28T21:01:56.520Z,7.72
2022-09-28T21:04:24.523Z,7.80
2022-09-28T21:06:52.006Z,7.20
2022-09-28T21:09:19.540Z,7.38
2022-09-28T21:11:47.106Z,7.28
2022-09-28T21:14:14.253Z,6.95
2022-09-28T21:16:41.131Z,8.55
2022-09-28T21:19:08.525Z,5.00
2022-09-28T21:21:35.603Z,4.78
2022-09-28T21:24:03.173Z,3.47
2022-09-28T21:26:31.715Z,8.13
2022-09-28T21:29:02.059Z,10.07
2022-09-28T21:31:33.002Z,7.82
2022-09-28T21:34:00.860Z,8.07
2022-09-28T21:36:27.732Z,9.20
2022-09-28T21:38:56.210Z,8.77
2022-09-28T21:41:26.019Z,7.97
2022-09-28T21:43:53.714Z,7.38
2022-09-28T21:46:21.225Z,6.20
2022-09-28T21:48:53.616Z,5.57
2022-09-28T21:51:21.456Z,8.60
2022-09-28T21:53:49.617Z,6.22
2022-09-28T21:56:17.615Z,8.13
2022-09-28T21:58:44.505Z,8.13
2022-09-28T22:01:20.855Z,8.32
2022-09-28T22:03:51.011Z,9.07
2022-09-28T22:06:23.722Z,9.82
2022-09-28T22:08:51.526Z,9.63
2022-09-28T22:11:21.371Z,10.05
2022-09-28T22:13:54.689Z,8.73
2022-09-28T22:16:24.672Z,8.75
2022-09-28T22:18:51.682Z,9.95
2022-09-28T22:21:24.448Z,10.88
2022-09-28T22:23:52.517Z,9.77
2022-09-28T22:26:25.883Z,9.52
2022-09-28T22:28:58.408Z,11.80
2022-09-28T22:31:29.575Z,8.48
2022-09-28T22:33:57.433Z,7.80
2022-09-28T22:36:26.001Z,5.97
2022-09-28T22:38:55.604Z,5.30
2022-09-28T22:41:22.523Z,6.35
2022-09-28T22:43:51.255Z,6.88
2022-09-28T22:46:24.676Z,5.57
2022-09-28T22:48:54.159Z,7.22
2022-09-28T22:51:22.286Z,6.63
2022-09-28T22:53:50.331Z,7.32
2022-09-28T22:56:19.191Z,8.20
2022-09-28T22:58:47.079Z,5.70
2022-09-28T23:01:18.019Z,5.90
2022-09-28T23:03:45.730Z,7.07
2022-09-28T23:06:15.063Z,8.50
2022-09-28T23:08:43.549Z,7.82
2022-09-28T23:11:10.535Z,12.25
2022-09-28T23:13:39.588Z,6.20
2022-09-28T23:16:08.876Z,19.17
2022-09-28T23:18:38.506Z,10.88
2022-09-28T23:21:07.919Z,11.93
2022-09-28T23:23:35.385Z,12.15
2022-09-28T23:26:14.302Z,11.38
2022-09-28T23:28:42.282Z,10.85
2022-09-28T23:31:15.482Z,10.57
2022-09-28T23:33:43.064Z,10.00
2022-09-28T23:36:10.042Z,11.50
2022-09-28T23:38:37.725Z,11.63
2022-09-28T23:41:05.502Z,11.75
2022-09-28T23:43:33.079Z,15.63
2022-09-28T23:46:00.112Z,16.42
2022-09-28T23:48:27.618Z,13.57
2022-09-28T23:50:54.533Z,11.68
2022-09-28T23:53:21.783Z,16.27
2022-09-28T23:55:49.067Z,17.45
2022-09-28T23:58:16.009Z,16.08
